createdAt,value
2018-02-10T00:01:23.629Z,100365.05
2018-02-10T00:03:53.032Z,100371.31
2018-02-10T00:06:22.389Z,100374.58
2018-02-10T00:08:51.745Z,100374.05
2018-02-10T00:11:20.991Z,100375.53
2018-02-10T00:13:51.728Z,100377.14
2018-02-10T00:16:21.694Z,100368.11
2018-02-10T00:18:51.091Z,100374.04
2018-02-10T00:21:20.855Z,100376.57
2018-02-10T00:23:49.966Z,100376.20
2018-02-10T00:26:19.966Z,100370.29
2018-02-10T00:28:49.746Z,100371.25
2018-02-10T00:31:18.974Z,100372.23
2018-02-10T00:33:48.801Z,100362.20
2018-02-10T00:36:18.693Z,100368.56
2018-02-10T00:38:48.141Z,100358.91
2018-02-10T00:41:17.215Z,100361.45
2018-02-10T00:43:47.285Z,100354.75
2018-02-10T00:46:17.357Z,100370.70
2018-02-10T00:48:46.859Z,100367.62
2018-02-10T00:51:16.949Z,100356.55
2018-02-10T00:53:51.855Z,100363.58
2018-02-10T00:56:20.940Z,100362.09
2018-02-10T00:58:51.024Z,100354.08
2018-02-10T01:01:20.222Z,100355.53
2018-02-10T01:03:50.952Z,100356.00
2018-02-10T01:06:20.919Z,100350.19
2018-02-10T01:08:53.600Z,100353.20
2018-02-10T01:11:23.835Z,100341.55
2018-02-10T01:13:54.118Z,100345.95
2018-02-10T01:16:26.475Z,100350.16
2018-02-10T01:18:57.324Z,100349.77
2018-02-10T01:21:29.308Z,100348.47
2018-02-10T01:23:58.269Z,100340.05
2018-02-10T01:26:27.369Z,100335.86
2018-02-10T01:28:57.320Z,100335.50
2018-02-10T01:31:26.274Z,100334.70
2018-02-10T01:33:55.792Z,100324.64
2018-02-10T01:36:26.842Z,100333.09
2018-02-10T01:38:55.818Z,100340.73
2018-02-10T01:41:24.949Z,100342.89
2018-02-10T01:43:56.571Z,100344.11
2018-02-10T01:46:25.493Z,100335.55
2018-02-10T01:48:55.067Z,100337.51
2018-02-10T01:51:25.741Z,100334.56
2018-02-10T01:53:54.795Z,100337.91
2018-02-10T01:56:24.016Z,100330.77
2018-02-10T01:58:54.525Z,100332.48
2018-02-10T02:01:23.457Z,100338.34
2018-02-10T02:03:53.453Z,100345.89
2018-02-10T02:06:27.442Z,100351.73
2018-02-10T02:08:57.551Z,100347.96
2018-02-10T02:11:27.992Z,100346.28
2018-02-10T02:13:57.087Z,100353.48
2018-02-10T02:16:26.294Z,100357.22
2018-02-10T02:18:55.495Z,100348.68
2018-02-10T02:21:25.595Z,100352.77
2018-02-10T02:23:54.742Z,100349.49
2018-02-10T02:26:23.694Z,100355.80
2018-02-10T02:28:53.415Z,100362.52
2018-02-10T02:31:23.394Z,100356.58
2018-02-10T02:33:52.621Z,100357.91
2018-02-10T02:36:22.685Z,100369.43
2018-02-10T02:38:51.744Z,100370.22
2018-02-10T02:41:20.848Z,100375.63
2018-02-10T02:43:50.649Z,100380.70
2018-02-10T02:46:20.405Z,100370.52
2018-02-10T02:48:49.452Z,100372.50
2018-02-10T02:51:20.424Z,100369.88
2018-02-10T02:53:50.237Z,100363.69
2018-02-10T02:56:20.137Z,100353.45
2018-02-10T02:58:50.134Z,100353.69
2018-02-10T03:01:19.135Z,100362.55
2018-02-10T03:03:48.225Z,100358.38
2018-02-10T03:06:18.793Z,100360.84
2018-02-10T03:08:50.512Z,100353.63
2018-02-10T03:11:22.065Z,100355.27
2018-02-10T03:13:51.077Z,100356.90
2018-02-10T03:16:22.085Z,100357.45
2018-02-10T03:18:53.761Z,100354.94
2018-02-10T03:21:22.687Z,100357.41
2018-02-10T03:23:51.746Z,100357.45
2018-02-10T03:26:20.910Z,100354.79
2018-02-10T03:28:50.141Z,100356.84
2018-02-10T03:31:20.101Z,100352.08
2018-02-10T03:33:50.794Z,100348.55
2018-02-10T03:36:19.888Z,100346.29
2018-02-10T03:38:48.989Z,100361.09
2018-02-10T03:41:19.718Z,100361.75
2018-02-10T03:43:49.845Z,100360.83
2018-02-10T03:46:18.863Z,100362.58
2018-02-10T03:48:50.744Z,100358.86
2018-02-10T03:51:19.787Z,100346.55
2018-02-10T03:53:49.705Z,100346.34
2018-02-10T03:56:18.937Z,100349.80
2018-02-10T03:58:47.998Z,100349.26
2018-02-10T04:01:16.886Z,100350.78
2018-02-10T04:03:46.729Z,100355.31
2018-02-10T04:06:15.799Z,100364.19
2018-02-10T04:08:44.859Z,100362.53
2018-02-10T04:11:15.663Z,100370.94
2018-02-10T04:13:44.727Z,100373.48
2018-02-10T04:16:14.641Z,100368.47
2018-02-10T04:18:45.511Z,100359.62
2018-02-10T04:21:14.472Z,100358.22
2018-02-10T04:23:43.698Z,100354.49
2018-02-10T04:26:14.312Z,100350.30
2018-02-10T04:28:50.411Z,100347.35
2018-02-10T04:31:19.572Z,100356.92
2018-02-10T04:33:50.126Z,100354.80
2018-02-10T04:36:19.233Z,100359.00
2018-02-10T04:38:53.413Z,100356.47
2018-02-10T04:41:22.476Z,100360.26
2018-02-10T04:43:51.502Z,100358.56
2018-02-10T04:46:22.542Z,100358.97
2018-02-10T04:48:51.741Z,100355.19
2018-02-10T04:51:21.489Z,100343.77
2018-02-10T04:53:50.419Z,100359.70
2018-02-10T04:56:19.751Z,100362.30
2018-02-10T04:58:48.774Z,100364.30
2018-02-10T05:01:18.349Z,100355.42
2018-02-10T05:03:48.055Z,100347.72
2018-02-10T05:06:17.977Z,100349.34
2018-02-10T05:08:47.066Z,100345.23
2018-02-10T05:11:16.164Z,100341.58
2018-02-10T05:13:46.794Z,100336.73
2018-02-10T05:16:17.734Z,100346.72
2018-02-10T05:18:49.530Z,100349.73
2018-02-10T05:21:18.589Z,100359.02
2018-02-10T05:23:47.501Z,100361.51
2018-02-10T05:26:18.253Z,100359.47
2018-02-10T05:28:47.452Z,100366.36
2018-02-10T05:31:16.512Z,100366.48
2018-02-10T05:33:45.610Z,100373.75
2018-02-10T05:36:17.722Z,100374.75
2018-02-10T05:38:46.799Z,100370.33
2018-02-10T05:41:15.864Z,100374.62
2018-02-10T05:43:45.718Z,100366.01
2018-02-10T05:46:14.772Z,100367.11
2018-02-10T05:48:43.764Z,100364.48
2018-02-10T05:51:13.819Z,100360.25
2018-02-10T05:53:42.707Z,100355.34
2018-02-10T05:56:11.769Z,100357.62
2018-02-10T05:58:44.032Z,100357.71
2018-02-10T06:01:14.044Z,100356.55
2018-02-10T06:03:46.226Z,100369.91
2018-02-10T06:06:15.251Z,100365.86
2018-02-10T06:08:45.178Z,100358.13
2018-02-10T06:11:15.882Z,100360.79
2018-02-10T06:13:44.866Z,100362.86
2018-02-10T06:16:13.862Z,100358.20
2018-02-10T06:18:44.703Z,100355.69
2018-02-10T06:21:13.690Z,100360.78
2018-02-10T06:23:42.732Z,100366.75
2018-02-10T06:26:11.820Z,100367.62
2018-02-10T06:28:40.906Z,100373.13
2018-02-10T06:31:10.924Z,100364.31
2018-02-10T06:33:41.349Z,100373.67
2018-02-10T06:36:10.352Z,100372.03
2018-02-10T06:38:39.510Z,100376.76
2018-02-10T06:41:09.530Z,100378.89
2018-02-10T06:43:39.517Z,100380.63
2018-02-10T06:46:09.917Z,100379.43
2018-02-10T06:48:39.929Z,100381.20
2018-02-10T06:51:09.037Z,100385.41
2018-02-10T06:53:38.011Z,100382.46
2018-02-10T06:56:07.273Z,100379.08
2018-02-10T06:58:36.209Z,100374.87
2018-02-10T07:01:05.958Z,100375.34
2018-02-10T07:03:37.642Z,100377.05
2018-02-10T07:06:06.734Z,100376.75
2018-02-10T07:08:35.728Z,100368.39
2018-02-10T07:11:08.513Z,100371.77
2018-02-10T07:13:38.428Z,100374.38
2018-02-10T07:16:07.427Z,100373.20
2018-02-10T07:18:38.165Z,100368.87
2018-02-10T07:21:07.098Z,100361.00
2018-02-10T07:23:36.197Z,100360.20
2018-02-10T07:26:08.621Z,100355.93
2018-02-10T07:28:39.394Z,100352.52
2018-02-10T07:31:08.446Z,100352.94
2018-02-10T07:33:38.437Z,100353.39
2018-02-10T07:36:07.470Z,100351.30
2018-02-10T07:38:36.451Z,100353.84
2018-02-10T07:41:06.276Z,100358.47
2018-02-10T07:43:35.262Z,100355.80
2018-02-10T07:46:04.456Z,100355.80
2018-02-10T07:48:34.474Z,100354.97
2018-02-10T07:51:04.425Z,100355.08
2018-02-10T07:53:33.385Z,100354.66
2018-02-10T07:56:02.616Z,100356.83
2018-02-10T07:58:32.191Z,100364.41
2018-02-10T08:01:01.302Z,100363.58
2018-02-10T08:03:31.685Z,100365.26
2018-02-10T08:06:01.605Z,100366.52
2018-02-10T08:08:30.520Z,100369.03
2018-02-10T08:11:03.238Z,100369.47
2018-02-10T08:13:32.925Z,100367.34
2018-02-10T08:16:01.912Z,100377.11
2018-02-10T08:18:34.793Z,100376.26
2018-02-10T08:21:03.853Z,100367.71
2018-02-10T08:23:33.853Z,100366.39
2018-02-10T08:26:07.245Z,100363.43
2018-02-10T08:28:37.058Z,100363.45
2018-02-10T08:31:06.110Z,100367.98
2018-02-10T08:33:37.070Z,100367.98
2018-02-10T08:36:07.649Z,100361.38
2018-02-10T08:38:36.708Z,100368.63
2018-02-10T08:41:07.448Z,100358.41
2018-02-10T08:43:37.241Z,100363.10
2018-02-10T08:46:07.384Z,100369.91
2018-02-10T08:48:37.459Z,100363.56
2018-02-10T08:51:07.490Z,100360.17
2018-02-10T08:53:36.506Z,100358.90
2018-02-10T08:56:05.617Z,100359.36
2018-02-10T08:58:34.716Z,100352.58
2018-02-10T09:01:04.424Z,100345.81
2018-02-10T09:03:34.081Z,100356.80
2018-02-10T09:06:04.746Z,100352.59
2018-02-10T09:08:33.929Z,100360.19
2018-02-10T09:11:03.117Z,100367.38
2018-02-10T09:13:32.380Z,100364.81
2018-02-10T09:16:01.410Z,100354.18
2018-02-10T09:18:31.520Z,100361.39
2018-02-10T09:21:00.632Z,100372.80
2018-02-10T09:23:29.591Z,100371.12
2018-02-10T09:26:00.401Z,100354.64
2018-02-10T09:28:29.554Z,100355.48
2018-02-10T09:30:58.754Z,100356.77
2018-02-10T09:33:31.425Z,100338.13
2018-02-10T09:36:01.963Z,100332.51
2018-02-10T09:38:32.169Z,100325.24
2018-02-10T09:41:01.181Z,100320.69
2018-02-10T09:43:30.224Z,100300.47
2018-02-10T09:46:00.051Z,100306.31
2018-02-10T09:48:29.084Z,100303.32
2018-02-10T09:50:58.980Z,100291.10
2018-02-10T09:53:43.636Z,100288.17
2018-02-10T09:56:14.521Z,100284.89
2018-02-10T09:58:44.754Z,100288.30
2018-02-10T10:01:14.739Z,100276.45
2018-02-10T10:03:44.038Z,100271.24
2018-02-10T10:06:13.738Z,100270.78
2018-02-10T10:08:42.743Z,100276.75
2018-02-10T10:11:12.642Z,100275.53
2018-02-10T10:13:46.163Z,100271.81
2018-02-10T10:16:18.177Z,100271.44
2018-02-10T10:18:47.381Z,100273.11
2018-02-10T10:21:17.035Z,100261.28
2018-02-10T10:23:46.955Z,100263.41
2018-02-10T10:26:16.865Z,100263.82
2018-02-10T10:28:45.962Z,100263.38
2018-02-10T10:31:15.465Z,100263.41
2018-02-10T10:33:44.764Z,100268.45
2018-02-10T10:36:14.731Z,100253.67
2018-02-10T10:38:43.837Z,100253.67
2018-02-10T10:41:14.103Z,100252.83
2018-02-10T10:43:43.291Z,100258.32
2018-02-10T10:46:12.346Z,100260.87
2018-02-10T10:48:41.714Z,100243.95
2018-02-10T10:51:10.873Z,100241.86
2018-02-10T10:53:40.411Z,100244.38
2018-02-10T10:56:09.444Z,100243.06
2018-02-10T10:58:39.285Z,100240.08
2018-02-10T11:01:08.512Z,100239.27
2018-02-10T11:03:40.984Z,100235.01
2018-02-10T11:06:10.899Z,100228.25
2018-02-10T11:08:39.897Z,100223.57
2018-02-10T11:11:09.718Z,100219.77
2018-02-10T11:13:39.553Z,100216.40
2018-02-10T11:16:09.666Z,100216.02
2018-02-10T11:18:40.662Z,100207.53
2018-02-10T11:21:10.295Z,100212.23
2018-02-10T11:23:43.282Z,100207.22
2018-02-10T11:26:12.277Z,100207.99
2018-02-10T11:28:41.508Z,100199.56
2018-02-10T11:31:10.657Z,100210.55
2018-02-10T11:33:40.382Z,100206.73
2018-02-10T11:36:12.087Z,100202.08
2018-02-10T11:38:41.193Z,100203.37
2018-02-10T11:41:10.436Z,100205.03
2018-02-10T11:43:40.187Z,100198.70
2018-02-10T11:46:09.138Z,100200.81
2018-02-10T11:48:38.273Z,100199.52
2018-02-10T11:51:10.168Z,100202.88
2018-02-10T11:53:39.276Z,100195.25
2018-02-10T11:56:09.177Z,100196.59
2018-02-10T11:58:39.088Z,100191.96
2018-02-10T12:01:08.191Z,100192.83
2018-02-10T12:03:37.114Z,100188.64
2018-02-10T12:06:07.746Z,100185.64
2018-02-10T12:08:36.706Z,100179.34
2018-02-10T12:11:07.783Z,100170.02
2018-02-10T12:13:42.819Z,100173.00
2018-02-10T12:16:11.841Z,100161.56
2018-02-10T12:18:41.731Z,100166.21
2018-02-10T12:21:11.628Z,100161.13
2018-02-10T12:23:40.635Z,100162.39
2018-02-10T12:26:09.835Z,100163.25
2018-02-10T12:28:38.886Z,100162.86
2018-02-10T12:31:08.128Z,100167.05
2018-02-10T12:33:38.020Z,100158.13
2018-02-10T12:36:08.847Z,100156.47
2018-02-10T12:38:38.833Z,100159.45
2018-02-10T12:41:08.017Z,100161.11
2018-02-10T12:43:37.431Z,100156.44
2018-02-10T12:46:07.661Z,100150.06
2018-02-10T12:48:45.501Z,100146.27
2018-02-10T12:51:14.931Z,100146.27
2018-02-10T12:53:44.246Z,100133.23
2018-02-10T12:56:15.008Z,100133.18
2018-02-10T12:58:44.617Z,100134.41
2018-02-10T13:01:14.221Z,100124.29
2018-02-10T13:03:44.445Z,100118.39
2018-02-10T13:06:13.952Z,100120.11
2018-02-10T13:08:43.302Z,100122.17
2018-02-10T13:11:13.071Z,100115.84
2018-02-10T13:13:42.365Z,100105.72
2018-02-10T13:16:11.724Z,100101.03
2018-02-10T13:18:41.812Z,100098.94
2018-02-10T13:21:10.978Z,100097.72
2018-02-10T13:23:40.096Z,100096.87
2018-02-10T13:26:10.827Z,100075.80
2018-02-10T13:28:40.119Z,100084.66
2018-02-10T13:31:09.181Z,100075.42
2018-02-10T13:33:40.934Z,100068.64
2018-02-10T13:36:10.958Z,100068.25
2018-02-10T13:38:40.080Z,100044.23
2018-02-10T13:41:09.395Z,100060.63
2018-02-10T13:43:38.544Z,100064.42
2018-02-10T13:46:07.848Z,100050.95
2018-02-10T13:48:42.883Z,100041.27
2018-02-10T13:51:13.283Z,100040.42
2018-02-10T13:53:43.539Z,100040.00
2018-02-10T13:56:12.885Z,100044.23
2018-02-10T13:58:42.770Z,100068.28
2018-02-10T14:01:11.878Z,100061.92
2018-02-10T14:03:41.142Z,100058.13
2018-02-10T14:06:11.057Z,100057.70
2018-02-10T14:08:40.318Z,100058.52
2018-02-10T14:11:09.356Z,100061.88
2018-02-10T14:13:39.388Z,100052.19
2018-02-10T14:16:08.740Z,100060.58
2018-02-10T14:18:38.081Z,100056.78
2018-02-10T14:21:07.887Z,100050.96
2018-02-10T14:23:37.438Z,100072.01
2018-02-10T14:26:06.580Z,100078.80
2018-02-10T14:28:35.746Z,100088.88
2018-02-10T14:31:06.736Z,100087.17
2018-02-10T14:33:36.803Z,100087.59
2018-02-10T14:36:07.740Z,100104.41
2018-02-10T14:38:36.997Z,100106.56
2018-02-10T14:41:06.095Z,100112.46
2018-02-10T14:43:36.106Z,100115.37
2018-02-10T14:46:07.475Z,100101.89
2018-02-10T14:48:36.758Z,100100.63
2018-02-10T14:51:06.005Z,100093.91
2018-02-10T14:53:35.984Z,100097.23
2018-02-10T14:56:06.070Z,100093.02
2018-02-10T14:58:35.310Z,100096.81
2018-02-10T15:01:05.168Z,100101.44
2018-02-10T15:03:34.867Z,100093.00
2018-02-10T15:06:05.677Z,100089.16
2018-02-10T15:08:34.905Z,100092.11
2018-02-10T15:11:05.693Z,100095.05
2018-02-10T15:13:35.131Z,100094.64
2018-02-10T15:16:04.448Z,100103.91
2018-02-10T15:18:34.904Z,100111.90
2018-02-10T15:21:04.081Z,100100.09
2018-02-10T15:23:34.478Z,100102.20
2018-02-10T15:26:03.794Z,100080.70
2018-02-10T15:28:33.258Z,100088.73
2018-02-10T15:31:14.241Z,100084.43
2018-02-10T15:33:54.690Z,100083.16
2018-02-10T15:36:23.953Z,100085.29
2018-02-10T15:38:54.064Z,100079.38
2018-02-10T15:41:23.365Z,100092.02
2018-02-10T15:43:54.864Z,100083.59
2018-02-10T15:46:24.429Z,100087.02
2018-02-10T15:48:54.135Z,100088.66
2018-02-10T15:51:24.873Z,100091.19
2018-02-10T15:53:54.064Z,100091.17
2018-02-10T15:56:23.592Z,100079.78
2018-02-10T15:58:53.355Z,100084.00
2018-02-10T16:01:22.917Z,100083.16
2018-02-10T16:03:52.570Z,100097.91
2018-02-10T16:06:22.214Z,100088.19
2018-02-10T16:08:51.879Z,100089.89
2018-02-10T16:11:21.079Z,100094.50
2018-02-10T16:13:52.565Z,100094.53
2018-02-10T16:16:22.165Z,100103.71
2018-02-10T16:18:51.706Z,100095.34
2018-02-10T16:21:21.383Z,100086.88
2018-02-10T16:23:50.649Z,100091.93
2018-02-10T16:26:21.466Z,100083.92
2018-02-10T16:28:51.776Z,100070.02
2018-02-10T16:31:21.358Z,100067.91
2018-02-10T16:33:50.830Z,100080.53
2018-02-10T16:36:21.862Z,100071.30
2018-02-10T16:38:51.615Z,100068.73
2018-02-10T16:41:22.057Z,100061.58
2018-02-10T16:43:54.043Z,100062.00
2018-02-10T16:46:23.006Z,100058.97
2018-02-10T16:48:52.290Z,100060.75
2018-02-10T16:51:21.657Z,100052.30
2018-02-10T16:53:50.917Z,100056.92
2018-02-10T16:56:20.172Z,100056.03
2018-02-10T16:58:50.818Z,100064.08
2018-02-10T17:01:20.945Z,100057.34
2018-02-10T17:03:50.434Z,100054.36
2018-02-10T17:06:21.801Z,100045.92
2018-02-10T17:08:51.433Z,100036.66
2018-02-10T17:11:20.682Z,100027.03
2018-02-10T17:13:50.045Z,100021.16
2018-02-10T17:16:20.145Z,100013.95
2018-02-10T17:18:50.005Z,100010.58
2018-02-10T17:21:20.490Z,99994.58
2018-02-10T17:23:49.842Z,99995.42
2018-02-10T17:26:20.106Z,99993.72
2018-02-10T17:28:54.953Z,99995.80
2018-02-10T17:31:25.279Z,100005.95
2018-02-10T17:33:54.650Z,100005.06
2018-02-10T17:36:23.897Z,100010.94
2018-02-10T17:38:53.124Z,100031.16
2018-02-10T17:41:22.805Z,100004.21
2018-02-10T17:43:54.633Z,100006.32
2018-02-10T17:46:24.647Z,100008.01
2018-02-10T17:48:53.815Z,99995.39
2018-02-10T17:51:23.101Z,99989.06
2018-02-10T17:53:52.471Z,99992.42
2018-02-10T17:56:22.577Z,99984.44
2018-02-10T17:58:53.788Z,99991.95
2018-02-10T18:01:22.805Z,99991.61
2018-02-10T18:03:52.085Z,99997.06
2018-02-10T18:06:21.073Z,99996.22
2018-02-10T18:08:50.615Z,99992.02
2018-02-10T18:11:20.203Z,99989.05
2018-02-10T18:13:54.971Z,99994.05
2018-02-10T18:16:24.156Z,99973.08
2018-02-10T18:18:53.580Z,99982.75
2018-02-10T18:21:24.565Z,99986.96
2018-02-10T18:23:53.858Z,99983.20
2018-02-10T18:26:28.949Z,99976.03
2018-02-10T18:28:58.202Z,99978.97
2018-02-10T18:31:27.296Z,99966.34
2018-02-10T18:33:58.283Z,99963.84
2018-02-10T18:36:27.570Z,99956.25
2018-02-10T18:38:56.981Z,99954.96
2018-02-10T18:41:27.757Z,99960.45
2018-02-10T18:43:56.768Z,99951.61
2018-02-10T18:46:26.006Z,99946.55
2018-02-10T18:48:58.555Z,99949.52
2018-02-10T18:51:27.746Z,99933.08
2018-02-10T18:53:56.676Z,99930.55
2018-02-10T18:56:29.384Z,99919.63
2018-02-10T18:58:58.618Z,99934.37
2018-02-10T19:01:28.751Z,99928.47
2018-02-10T19:03:58.096Z,99925.52
2018-02-10T19:06:27.445Z,99931.43
2018-02-10T19:08:56.742Z,99932.27
2018-02-10T19:11:25.880Z,99930.59
2018-02-10T19:13:55.086Z,99931.91
2018-02-10T19:16:24.397Z,99920.49
2018-02-10T19:18:53.785Z,99935.70
2018-02-10T19:21:23.295Z,99918.01
2018-02-10T19:23:52.549Z,99907.86
2018-02-10T19:26:24.000Z,99898.18
2018-02-10T19:28:53.196Z,99920.11
2018-02-10T19:31:22.276Z,99884.30
2018-02-10T19:33:52.227Z,99886.44
2018-02-10T19:36:21.409Z,99891.92
2018-02-10T19:38:50.597Z,99892.33
2018-02-10T19:41:20.735Z,99893.59
2018-02-10T19:43:49.724Z,99893.19
2018-02-10T19:46:19.058Z,99900.33
2018-02-10T19:48:49.021Z,99882.19
2018-02-10T19:51:18.093Z,99879.70
2018-02-10T19:53:47.105Z,99907.86
2018-02-10T19:56:17.859Z,99897.76
2018-02-10T19:58:47.274Z,99873.77
2018-02-10T20:01:16.314Z,99864.13
2018-02-10T20:03:50.579Z,99856.55
2018-02-10T20:06:20.321Z,99859.50
2018-02-10T20:08:49.485Z,99843.50
2018-02-10T20:11:21.766Z,99862.83
2018-02-10T20:13:51.013Z,99860.34
2018-02-10T20:16:20.160Z,99845.56
2018-02-10T20:18:50.212Z,99845.98
2018-02-10T20:21:20.842Z,99838.03
2018-02-10T20:23:50.006Z,99837.19
2018-02-10T20:28:55.161Z,99828.31
2018-02-10T20:31:25.190Z,99818.20
2018-02-10T20:33:54.731Z,99821.19
2018-02-10T20:36:23.784Z,99827.47
2018-02-10T20:38:53.819Z,99828.30
2018-02-10T20:41:23.202Z,99821.98
2018-02-10T20:43:52.854Z,99814.84
2018-02-10T20:46:22.525Z,99804.73
2018-02-10T20:48:53.328Z,99796.73
2018-02-10T20:51:22.494Z,99791.72
2018-02-10T20:53:52.382Z,99786.64
2018-02-10T20:56:24.977Z,99788.32
2018-02-10T20:58:54.917Z,99766.86
2018-02-10T21:01:23.964Z,99776.95
2018-02-10T21:03:56.661Z,99757.18
2018-02-10T21:06:26.575Z,99761.39
2018-02-10T21:08:55.701Z,99754.66
2018-02-10T21:11:27.378Z,99747.92
2018-02-10T21:13:56.403Z,99744.55
2018-02-10T21:16:25.623Z,99741.19
2018-02-10T21:18:56.634Z,99736.11
2018-02-10T21:21:26.871Z,99719.31
2018-02-10T21:23:56.816Z,99730.25
2018-02-10T21:26:31.203Z,99722.67
2018-02-10T21:29:00.840Z,99710.88
2018-02-10T21:31:30.223Z,99711.31
2018-02-10T21:34:01.941Z,99706.66
2018-02-10T21:36:31.876Z,99690.66
2018-02-10T21:39:01.806Z,99689.41
2018-02-10T21:41:30.958Z,99678.05
2018-02-10T21:44:00.196Z,99683.52
2018-02-10T21:46:29.259Z,99666.69
2018-02-10T21:49:00.195Z,99683.52
2018-02-10T21:51:30.211Z,99658.27
2018-02-10T21:54:00.216Z,99668.80
2018-02-10T21:56:29.615Z,99661.63
2018-02-10T21:58:59.575Z,99654.50
2018-02-10T22:01:28.718Z,99669.21
2018-02-10T22:03:59.571Z,99670.89
2018-02-10T22:06:28.782Z,99669.20
2018-02-10T22:08:57.930Z,99670.89
2018-02-10T22:11:28.050Z,99688.14
2018-02-10T22:13:57.301Z,99702.45
2018-02-10T22:16:27.257Z,99682.28
2018-02-10T22:18:58.572Z,99687.32
2018-02-10T22:21:27.813Z,99667.53
2018-02-10T22:23:57.274Z,99676.80
2018-02-10T22:26:27.217Z,99673.00
2018-02-10T22:28:56.663Z,99677.62
2018-02-10T22:31:26.764Z,99673.42
2018-02-10T22:33:58.408Z,99680.59
2018-02-10T22:36:27.807Z,99685.64
2018-02-10T22:38:58.067Z,99683.93
2018-02-10T22:41:28.564Z,99705.39
2018-02-10T22:43:58.126Z,99669.22
2018-02-10T22:46:27.412Z,99676.77
2018-02-10T22:48:56.994Z,99672.14
2018-02-10T22:51:26.390Z,99678.02
2018-02-10T22:53:55.940Z,99676.27
2018-02-10T22:56:27.462Z,99689.30
2018-02-10T22:58:57.573Z,99658.20
2018-02-10T23:01:27.263Z,99658.58
2018-02-10T23:03:58.283Z,99648.11
2018-02-10T23:06:27.902Z,99655.67
2018-02-10T23:08:57.317Z,99635.87
2018-02-10T23:11:31.142Z,99653.95
2018-02-10T23:14:00.484Z,99623.27
2018-02-10T23:16:29.533Z,99629.57
2018-02-10T23:19:00.418Z,99612.76
2018-02-10T23:21:29.574Z,99597.63
2018-02-10T23:23:58.805Z,99607.71
2018-02-10T23:26:30.189Z,99604.35
2018-02-10T23:28:59.929Z,99604.35
2018-02-10T23:31:28.915Z,99608.97
2018-02-10T23:33:58.301Z,99625.37
2018-02-10T23:36:27.603Z,99611.08
2018-02-10T23:38:57.241Z,99599.73
2018-02-10T23:41:29.056Z,99578.26
2018-02-10T23:43:58.295Z,99576.16
2018-02-10T23:46:27.590Z,99574.89
2018-02-10T23:48:56.792Z,99577.41
2018-02-10T23:51:26.143Z,99569.85
2018-02-10T23:53:55.179Z,99550.95
2018-02-10T23:56:25.168Z,99569.81
2018-02-10T23:58:54.198Z,99550.95
